Time;durP1;ratioP1;P1;durP2;ratioP2;P2;SDS_P1;SDS_P2;PMS_P1;PMS_P2;Temp;Humidity;BMP_temperature;BMP_pressure;BME280_temperature;BME280_humidity;BME280_pressure;Samples;Min_cycle;Max_cycle;Signal;HPM_P1;HPM_P2
2021/09/06 00:00:30;;;;;;;23.10;16.63;;;15.30;1.00;;;;;;4946649;28;20461;-77
2021/09/06 00:02:56;;;;;;;28.70;18.30;;;15.30;1.00;;;;;;4949625;28;20202;-77
2021/09/06 00:05:22;;;;;;;23.97;16.50;;;15.40;1.00;;;;;;4947219;28;20221;-77
2021/09/06 00:07:47;;;;;;;22.97;16.80;;;15.40;1.00;;;;;;4950091;28;20985;-77
2021/09/06 00:10:39;;;;;;;25.43;16.53;;;15.40;1.00;;;;;;4948666;28;21595;-77
2021/09/06 00:13:06;;;;;;;23.90;17.27;;;15.30;1.00;;;;;;4952197;28;20197;-77
2021/09/06 00:15:33;;;;;;;27.20;17.90;;;15.20;1.00;;;;;;4951364;28;20457;-77
2021/09/06 00:17:58;;;;;;;21.03;15.53;;;15.10;1.00;;;;;;4950172;28;20477;-77
2021/09/06 00:20:25;;;;;;;25.40;17.83;;;14.90;1.00;;;;;;4952180;28;20485;-76
2021/09/06 00:22:51;;;;;;;30.60;18.70;;;14.90;1.00;;;;;;4952295;28;20194;-77
2021/09/06 00:25:17;;;;;;;29.60;17.47;;;14.90;1.00;;;;;;4951842;28;21041;-76
2021/09/06 00:27:43;;;;;;;22.40;16.80;;;14.80;1.00;;;;;;4954287;28;20488;-76
2021/09/06 00:30:09;;;;;;;24.73;17.53;;;14.70;1.00;;;;;;4947512;28;20179;-76
2021/09/06 00:32:35;;;;;;;20.67;16.40;;;14.70;1.00;;;;;;4954312;28;20190;-77
2021/09/06 00:35:01;;;;;;;23.57;16.60;;;14.70;1.00;;;;;;4938532;28;20472;-76
2021/09/06 00:37:26;;;;;;;24.87;16.80;;;14.60;1.00;;;;;;4951725;28;20489;-76
2021/09/06 00:39:52;;;;;;;24.20;18.13;;;14.60;1.00;;;;;;4938644;28;20875;-77
2021/09/06 00:42:18;;;;;;;28.90;20.60;;;14.50;1.00;;;;;;4953468;28;20192;-76
2021/09/06 00:44:43;;;;;;;23.40;16.00;;;14.60;1.00;;;;;;4953988;28;21318;-77
2021/09/06 00:47:09;;;;;;;25.53;17.67;;;14.60;1.00;;;;;;4953024;28;20244;-77
2021/09/06 00:49:35;;;;;;;24.70;17.73;;;14.60;1.00;;;;;;4933147;28;20305;-76
2021/09/06 00:52:01;;;;;;;25.13;16.70;;;14.50;1.00;;;;;;4951364;28;20213;-76
2021/09/06 00:54:26;;;;;;;23.97;17.77;;;14.50;1.00;;;;;;4953255;28;20194;-76
2021/09/06 00:56:53;;;;;;;24.53;18.03;;;14.50;1.00;;;;;;4939859;28;20189;-76
2021/09/06 00:59:20;;;;;;;27.60;18.70;;;14.50;1.00;;;;;;4952527;28;20441;-76
2021/09/06 01:01:46;;;;;;;24.40;18.23;;;14.40;1.00;;;;;;4936596;28;20492;-76
2021/09/06 01:04:13;;;;;;;22.13;17.77;;;14.30;1.00;;;;;;4951980;28;20458;-76
2021/09/06 01:07:18;;;;;;;23.07;16.73;;;14.40;1.00;;;;;;4896400;29;20483;-76
2021/09/06 01:09:55;;;;;;;27.53;18.60;;;14.40;1.00;;;;;;4881163;29;20459;-76
2021/09/06 01:12:33;;;;;;;23.80;18.00;;;14.40;1.00;;;;;;4915691;28;20449;-76
2021/09/06 01:14:59;;;;;;;24.90;17.70;;;14.30;1.00;;;;;;4932234;28;20435;-76
2021/09/06 01:17:25;;;;;;;28.27;18.60;;;14.30;1.00;;;;;;4934027;28;20481;-77
2021/09/06 01:19:51;;;;;;;25.20;18.50;;;14.30;1.00;;;;;;4914362;28;20214;-76
2021/09/06 01:22:18;;;;;;;26.70;18.13;;;14.30;1.00;;;;;;4911721;28;20523;-77
2021/09/06 01:25:15;;;;;;;29.83;18.60;;;14.20;1.00;;;;;;4896199;28;20498;-77
2021/09/06 01:27:42;;;;;;;23.30;16.90;;;14.20;1.00;;;;;;4916277;28;21063;-76
2021/09/06 01:30:09;;;;;;;24.17;17.30;;;14.20;1.00;;;;;;4934114;28;20530;-77
2021/09/06 01:32:35;;;;;;;27.13;17.70;;;14.30;1.00;;;;;;4910519;28;20474;-76
2021/09/06 01:35:00;;;;;;;26.20;19.20;;;14.30;1.00;;;;;;4916652;28;20466;-77
2021/09/06 01:37:26;;;;;;;26.20;18.30;;;14.30;1.00;;;;;;4927891;28;20455;-76
2021/09/06 01:39:55;;;;;;;22.77;16.50;;;14.30;1.00;;;;;;4920613;28;20274;-76
2021/09/06 01:42:22;;;;;;;25.47;17.67;;;14.30;1.00;;;;;;4910310;28;20549;-77
2021/09/06 01:44:49;;;;;;;23.20;17.17;;;14.30;1.00;;;;;;4927961;28;20490;-76
2021/09/06 01:47:18;;;;;;;24.70;17.30;;;14.30;1.00;;;;;;4916876;28;20458;-76
2021/09/06 01:49:44;;;;;;;21.57;16.30;;;14.30;1.00;;;;;;4918592;28;20490;-77
2021/09/06 01:52:10;;;;;;;23.40;16.90;;;14.30;1.00;;;;;;4917753;28;20189;-76
2021/09/06 01:54:36;;;;;;;24.40;16.70;;;14.30;1.00;;;;;;4920169;28;20182;-76
2021/09/06 01:57:03;;;;;;;27.17;17.90;;;14.30;1.00;;;;;;4917976;29;20449;-76
2021/09/06 01:59:29;;;;;;;26.30;19.20;;;14.30;1.00;;;;;;4917748;28;20807;-77
2021/09/06 02:01:55;;;;;;;24.80;17.67;;;14.20;1.00;;;;;;4912013;28;20976;-76
2021/09/06 02:04:21;;;;;;;24.20;17.80;;;14.20;1.00;;;;;;4914328;28;20928;-76
2021/09/06 02:06:47;;;;;;;26.07;17.47;;;14.20;1.00;;;;;;4910270;28;20197;-77
2021/09/06 02:09:12;;;;;;;26.70;17.40;;;14.30;1.00;;;;;;4930525;28;20187;-76
2021/09/06 02:11:38;;;;;;;23.43;16.27;;;14.20;1.00;;;;;;4931227;28;20345;-76
2021/09/06 02:14:06;;;;;;;26.33;17.73;;;14.10;1.00;;;;;;4914654;28;20557;-76
2021/09/06 02:16:33;;;;;;;21.70;16.83;;;14.10;1.00;;;;;;4936036;28;20441;-77
2021/09/06 02:19:01;;;;;;;30.47;17.63;;;14.10;1.00;;;;;;4933513;28;20488;-77
2021/09/06 02:21:27;;;;;;;24.90;16.83;;;14.10;1.00;;;;;;4932910;28;20449;-76
2021/09/06 02:24:01;;;;;;;24.30;16.87;;;14.00;1.00;;;;;;4927538;28;20193;-76
2021/09/06 02:26:29;;;;;;;25.37;17.70;;;13.80;1.00;;;;;;4941539;28;20453;-76
2021/09/06 02:28:55;;;;;;;22.83;16.00;;;13.80;1.00;;;;;;4933617;28;20476;-77
2021/09/06 02:31:22;;;;;;;24.63;16.00;;;13.70;1.00;;;;;;4933286;28;20454;-76
2021/09/06 02:34:11;;;;;;;23.80;15.40;;;13.70;1.00;;;;;;4941623;28;21202;-76
2021/09/06 02:36:39;;;;;;;24.20;16.10;;;13.60;1.00;;;;;;4952528;28;20473;-76
2021/09/06 02:39:05;;;;;;;25.00;17.20;;;13.50;1.00;;;;;;4947944;28;20574;-76
2021/09/06 02:41:31;;;;;;;23.57;16.60;;;13.50;1.00;;;;;;4936415;28;20243;-76
2021/09/06 02:43:57;;;;;;;23.13;16.93;;;13.40;1.00;;;;;;4950036;28;20495;-77
2021/09/06 02:46:23;;;;;;;24.97;17.03;;;13.40;1.00;;;;;;4929214;28;20854;-77
2021/09/06 02:48:49;;;;;;;25.13;16.37;;;13.40;1.00;;;;;;4933176;28;20568;-76
2021/09/06 02:51:17;;;;;;;32.50;15.90;;;13.40;3.80;;;;;;4933901;28;20194;-76
2021/09/06 02:53:43;;;;;;;20.90;16.37;;;13.40;1.00;;;;;;4932306;28;20441;-76
2021/09/06 02:56:09;;;;;;;23.97;16.90;;;13.40;1.00;;;;;;4933352;28;20445;-76
2021/09/06 02:58:37;;;;;;;25.10;17.63;;;13.50;1.00;;;;;;4933219;28;20197;-76
2021/09/06 03:01:03;;;;;;;25.87;17.67;;;13.50;1.00;;;;;;4948749;28;20458;-76
2021/09/06 03:03:29;;;;;;;22.70;16.47;;;13.50;1.00;;;;;;4931157;28;20198;-76
2021/09/06 03:05:54;;;;;;;27.73;16.93;;;13.50;1.00;;;;;;4948792;28;20319;-77
2021/09/06 03:08:21;;;;;;;24.30;18.17;;;13.50;1.00;;;;;;4936235;28;20210;-76
2021/09/06 03:10:48;;;;;;;25.00;17.97;;;13.40;1.00;;;;;;4934586;28;20976;-76
2021/09/06 03:13:14;;;;;;;24.67;19.10;;;13.40;1.00;;;;;;4934786;28;20444;-77
2021/09/06 03:15:43;;;;;;;24.07;17.20;;;13.40;1.00;;;;;;4945782;28;20194;-76
2021/09/06 03:18:09;;;;;;;23.33;16.77;;;13.40;1.00;;;;;;4935228;28;20594;-76
2021/09/06 03:20:57;;;;;;;29.00;18.57;;;13.30;1.00;;;;;;4948060;28;20456;-76
2021/09/06 03:23:23;;;;;;;24.97;17.50;;;13.30;1.00;;;;;;4944998;28;20449;-76
2021/09/06 03:25:49;;;;;;;25.10;17.83;;;13.30;1.00;;;;;;4942022;28;20446;-76
2021/09/06 03:28:16;;;;;;;26.80;18.33;;;13.30;95.50;;;;;;4937806;28;20213;-76
2021/09/06 03:30:43;;;;;;;24.77;17.10;;;13.30;99.90;;;;;;4932699;28;21286;-77
2021/09/06 03:33:13;;;;;;;28.27;18.30;;;13.40;58.20;;;;;;4946081;28;20528;-76
2021/09/06 03:35:44;;;;;;;23.90;16.23;;;13.40;1.00;;;;;;4935854;28;20824;-76
2021/09/06 03:38:13;;;;;;;25.20;17.80;;;13.30;8.80;;;;;;4932363;28;20458;-76
2021/09/06 03:40:40;;;;;;;22.47;16.73;;;13.40;40.40;;;;;;4930500;28;20548;-77
2021/09/06 03:43:06;;;;;;;23.67;17.63;;;13.40;1.00;;;;;;4932090;28;20455;-76
2021/09/06 03:45:33;;;;;;;27.87;18.50;;;13.30;1.00;;;;;;4936832;28;20482;-76
2021/09/06 03:47:59;;;;;;;26.10;17.73;;;13.20;1.00;;;;;;4952887;28;20561;-76
2021/09/06 03:50:25;;;;;;;24.60;18.13;;;13.40;16.50;;;;;;4943411;28;20553;-76
2021/09/06 03:52:51;;;;;;;24.77;17.80;;;13.40;11.00;;;;;;4939750;28;20186;-76
2021/09/06 03:55:20;;;;;;;28.83;17.73;;;13.40;1.00;;;;;;4955030;28;20448;-76
2021/09/06 03:57:46;;;;;;;28.43;19.53;;;13.30;1.60;;;;;;4943225;28;20822;-77
2021/09/06 04:00:12;;;;;;;27.10;18.10;;;13.30;18.90;;;;;;4939705;28;20253;-76
2021/09/06 04:02:44;;;;;;;26.20;17.23;;;13.40;5.30;;;;;;4959871;28;20236;-76
2021/09/06 04:05:10;;;;;;;23.33;17.30;;;13.40;6.50;;;;;;4945045;28;20448;-76
2021/09/06 04:07:36;;;;;;;20.40;14.57;;;13.50;1.00;;;;;;4946719;28;20962;-76
2021/09/06 04:10:02;;;;;;;22.90;15.70;;;13.20;1.00;;;;;;4946911;28;20477;-76
2021/09/06 04:12:31;;;;;;;22.20;16.20;;;13.00;1.00;;;;;;4943482;28;20471;-76
2021/09/06 04:14:59;;;;;;;21.57;15.57;;;12.80;1.00;;;;;;4946859;28;21032;-76
2021/09/06 04:17:26;;;;;;;23.80;16.13;;;12.80;1.00;;;;;;4958287;28;20445;-77
2021/09/06 04:19:52;;;;;;;24.00;17.40;;;12.70;1.00;;;;;;4944431;28;21058;-77
2021/09/06 04:22:18;;;;;;;24.40;16.77;;;12.70;1.00;;;;;;4946230;28;20504;-77
2021/09/06 04:24:44;;;;;;;23.77;17.40;;;12.60;1.10;;;;;;4942347;28;20249;-77
2021/09/06 04:27:09;;;;;;;28.27;16.23;;;12.60;9.00;;;;;;4946571;28;23526;-76
2021/09/06 04:29:35;;;;;;;26.10;18.40;;;12.60;23.80;;;;;;4946189;28;20213;-76
2021/09/06 04:32:02;;;;;;;25.13;17.40;;;12.60;99.90;;;;;;4943377;28;20537;-77
2021/09/06 04:34:28;;;;;;;22.23;16.57;;;12.80;99.90;;;;;;4937493;28;20477;-77
2021/09/06 04:36:54;;;;;;;20.80;15.67;;;12.90;99.90;;;;;;4944003;28;20442;-76
2021/09/06 04:39:20;;;;;;;24.80;17.80;;;12.90;99.90;;;;;;4941815;28;20204;-76
2021/09/06 04:41:47;;;;;;;25.10;17.63;;;13.00;99.90;;;;;;4943332;28;20433;-77
2021/09/06 04:44:17;;;;;;;26.73;18.20;;;13.10;99.90;;;;;;4935320;28;20446;-77
2021/09/06 04:46:44;;;;;;;25.53;16.70;;;13.20;99.90;;;;;;4931341;28;20437;-77
2021/09/06 04:49:12;;;;;;;23.63;16.87;;;13.10;95.80;;;;;;4934081;28;20477;-77
2021/09/06 04:51:37;;;;;;;20.17;15.70;;;13.10;99.90;;;;;;4956136;28;20437;-76
2021/09/06 04:54:05;;;;;;;22.50;16.07;;;13.00;99.90;;;;;;4945564;28;20705;-76
2021/09/06 04:56:31;;;;;;;24.73;15.93;;;13.00;98.70;;;;;;4941531;28;20840;-76
2021/09/06 04:59:01;;;;;;;28.00;16.53;;;13.00;99.90;;;;;;4939535;28;20460;-76
2021/09/06 05:01:27;;;;;;;27.30;18.47;;;13.10;90.00;;;;;;4926289;28;20461;-76
2021/09/06 05:03:54;;;;;;;26.30;17.07;;;13.10;48.50;;;;;;4930311;28;20462;-76
2021/09/06 05:06:19;;;;;;;26.90;18.20;;;13.20;34.30;;;;;;4949310;28;21207;-76
2021/09/06 05:08:45;;;;;;;24.37;17.20;;;13.10;18.00;;;;;;4949912;28;20225;-76
2021/09/06 05:11:11;;;;;;;28.70;17.20;;;13.10;14.40;;;;;;4940703;28;20289;-76
2021/09/06 05:13:36;;;;;;;22.90;17.37;;;13.10;9.30;;;;;;4941619;28;20190;-76
2021/09/06 05:16:02;;;;;;;24.67;17.90;;;13.10;4.70;;;;;;4935662;28;20182;-76
2021/09/06 05:18:28;;;;;;;24.77;16.80;;;13.10;8.40;;;;;;4954758;28;20221;-76
2021/09/06 05:20:56;;;;;;;22.50;16.53;;;13.10;6.40;;;;;;4934179;28;20274;-76
2021/09/06 05:23:22;;;;;;;25.17;17.47;;;13.10;4.20;;;;;;4933936;28;20491;-76
2021/09/06 05:25:48;;;;;;;22.80;16.67;;;13.00;15.50;;;;;;4953242;28;20190;-76
2021/09/06 05:28:19;;;;;;;26.30;17.50;;;13.00;29.20;;;;;;4935546;28;20897;-76
2021/09/06 05:30:44;;;;;;;24.03;16.53;;;12.90;14.90;;;;;;4946283;28;20484;-76
2021/09/06 05:33:11;;;;;;;23.63;16.20;;;13.00;23.60;;;;;;4937628;28;20278;-76
2021/09/06 05:35:36;;;;;;;26.60;16.50;;;13.00;12.40;;;;;;4940458;28;20523;-76
2021/09/06 05:38:02;;;;;;;26.10;17.80;;;13.00;1.00;;;;;;4948584;28;20280;-77
2021/09/06 05:40:54;;;;;;;23.13;16.70;;;13.10;1.00;;;;;;4946265;28;20197;-78
2021/09/06 05:43:19;;;;;;;21.50;16.47;;;13.10;1.00;;;;;;4936597;28;20450;-76
2021/09/06 05:45:45;;;;;;;26.27;18.60;;;13.20;1.00;;;;;;4930376;28;20206;-77
2021/09/06 05:48:11;;;;;;;24.40;16.43;;;13.20;1.00;;;;;;4935664;28;20218;-77
2021/09/06 05:50:37;;;;;;;21.37;16.63;;;13.10;1.00;;;;;;4927933;28;20883;-76
2021/09/06 05:53:22;;;;;;;26.77;17.67;;;13.00;1.00;;;;;;4946958;28;20534;-77
2021/09/06 05:55:48;;;;;;;22.43;16.17;;;13.00;1.00;;;;;;4941751;28;20468;-76
2021/09/06 05:58:14;;;;;;;22.40;15.20;;;13.10;1.00;;;;;;4947288;28;20192;-77
2021/09/06 06:00:41;;;;;;;22.10;15.80;;;13.00;8.30;;;;;;4911401;28;20496;-77
2021/09/06 06:03:08;;;;;;;22.60;15.80;;;13.00;15.10;;;;;;4930988;28;20847;-77
2021/09/06 06:05:34;;;;;;;20.00;14.50;;;13.10;9.20;;;;;;4932548;28;20461;-78
2021/09/06 06:08:00;;;;;;;19.57;15.10;;;13.20;1.00;;;;;;4947016;28;20214;-77
2021/09/06 06:10:26;;;;;;;21.77;16.80;;;13.10;1.00;;;;;;4949103;28;20629;-77
2021/09/06 06:12:53;;;;;;;23.20;17.10;;;13.20;1.00;;;;;;4938413;28;20445;-77
2021/09/06 06:15:18;;;;;;;23.83;16.10;;;13.20;22.80;;;;;;4936598;28;20464;-77
2021/09/06 06:17:45;;;;;;;22.87;17.70;;;13.20;97.60;;;;;;4930730;28;20252;-77
2021/09/06 06:20:12;;;;;;;22.07;16.77;;;13.40;53.50;;;;;;4934660;28;20540;-77
2021/09/06 06:22:56;;;;;;;20.53;16.40;;;13.50;12.70;;;;;;4948142;28;20508;-77
2021/09/06 06:25:37;;;;;;;22.50;16.17;;;13.50;1.00;;;;;;4953408;28;20463;-78
2021/09/06 06:28:11;;;;;;;24.90;16.40;;;13.70;4.40;;;;;;4950687;28;20575;-77
2021/09/06 06:30:36;;;;;;;24.60;15.40;;;13.70;1.00;;;;;;4928304;28;20499;-77
2021/09/06 06:33:03;;;;;;;24.10;16.37;;;13.80;1.00;;;;;;4937459;28;20189;-78
2021/09/06 06:35:40;;;;;;;21.00;15.70;;;13.80;1.00;;;;;;4945370;28;20503;-76
2021/09/06 06:38:07;;;;;;;23.67;17.87;;;13.90;1.00;;;;;;4949576;28;20454;-76
2021/09/06 06:40:36;;;;;;;27.73;18.43;;;13.90;1.00;;;;;;4943379;28;20858;-76
2021/09/06 06:43:03;;;;;;;26.00;17.70;;;14.00;1.00;;;;;;4921411;28;20503;-76
2021/09/06 06:45:29;;;;;;;27.70;16.67;;;14.20;1.00;;;;;;4934350;28;20465;-76
2021/09/06 06:47:56;;;;;;;23.37;16.80;;;14.30;1.00;;;;;;4938232;28;20485;-76
2021/09/06 06:50:24;;;;;;;35.93;18.30;;;14.50;1.00;;;;;;4943308;28;21017;-76
2021/09/06 06:52:52;;;;;;;25.23;16.70;;;14.70;1.00;;;;;;4926278;28;20465;-76
2021/09/06 06:55:18;;;;;;;24.83;17.30;;;14.90;1.00;;;;;;4934333;28;20438;-75
2021/09/06 06:57:43;;;;;;;22.87;15.90;;;14.90;1.00;;;;;;4935115;28;20795;-77
2021/09/06 07:00:10;;;;;;;20.70;15.10;;;14.90;1.00;;;;;;4949939;28;20651;-77
2021/09/06 07:02:39;;;;;;;20.73;15.50;;;14.90;1.00;;;;;;4947277;28;20217;-77
2021/09/06 07:05:06;;;;;;;20.10;15.30;;;14.90;1.00;;;;;;4934130;28;20465;-76
2021/09/06 07:07:36;;;;;;;20.80;15.50;;;15.00;1.00;;;;;;4940501;28;20935;-76
2021/09/06 07:10:03;;;;;;;22.67;16.93;;;15.10;1.00;;;;;;4932945;28;20543;-76
2021/09/06 07:12:28;;;;;;;31.73;17.00;;;15.30;1.00;;;;;;4921772;28;20453;-76
2021/09/06 07:14:54;;;;;;;25.20;17.03;;;15.30;1.00;;;;;;4919695;28;20461;-76
2021/09/06 07:17:20;;;;;;;22.50;17.20;;;15.50;1.00;;;;;;4944160;28;20182;-76
2021/09/06 07:19:46;;;;;;;24.67;17.60;;;15.60;1.00;;;;;;4936757;28;20201;-76
2021/09/06 07:22:12;;;;;;;19.83;15.80;;;15.80;1.00;;;;;;4928290;28;20872;-76
2021/09/06 07:24:39;;;;;;;21.53;15.97;;;16.00;1.00;;;;;;4948031;28;20806;-76
2021/09/06 07:27:04;;;;;;;22.03;16.03;;;16.20;1.00;;;;;;4940273;28;20534;-76
2021/09/06 07:29:30;;;;;;;20.13;16.27;;;16.40;1.00;;;;;;4938954;28;20234;-76
2021/09/06 07:31:58;;;;;;;21.53;17.10;;;16.50;1.00;;;;;;4941513;28;20452;-76
2021/09/06 07:34:23;;;;;;;23.63;18.23;;;16.70;1.00;;;;;;4945265;28;20466;-76
2021/09/06 07:36:49;;;;;;;24.27;16.50;;;16.90;1.00;;;;;;4934643;28;20273;-76
2021/09/06 07:39:16;;;;;;;24.67;16.87;;;17.00;1.00;;;;;;4935295;28;20240;-76
2021/09/06 07:41:43;;;;;;;22.27;16.97;;;17.10;1.00;;;;;;4935148;28;20217;-76
2021/09/06 07:44:09;;;;;;;23.70;16.83;;;17.20;1.00;;;;;;4950578;28;20457;-77
2021/09/06 07:46:35;;;;;;;22.50;16.63;;;17.10;1.00;;;;;;4942497;28;20445;-76
2021/09/06 07:49:02;;;;;;;22.50;15.73;;;17.10;1.00;;;;;;4951354;28;20497;-76
2021/09/06 07:51:29;;;;;;;33.33;17.30;;;17.10;1.00;;;;;;4936986;28;20442;-76
2021/09/06 07:53:55;;;;;;;21.90;16.93;;;17.20;1.00;;;;;;4940485;28;20442;-76
2021/09/06 07:56:21;;;;;;;32.50;17.80;;;17.30;1.00;;;;;;4936056;28;20529;-76
2021/09/06 07:58:47;;;;;;;26.80;17.20;;;17.40;1.00;;;;;;4937654;28;20456;-76
2021/09/06 08:01:13;;;;;;;22.43;16.50;;;17.50;1.00;;;;;;4939866;28;20221;-76
2021/09/06 08:03:39;;;;;;;22.73;16.93;;;17.60;1.00;;;;;;4951907;28;20548;-77
2021/09/06 08:06:05;;;;;;;22.47;16.60;;;17.70;1.00;;;;;;4935076;28;20240;-76
2021/09/06 08:08:31;;;;;;;31.47;17.13;;;17.90;1.00;;;;;;4934908;28;20220;-76
2021/09/06 08:10:57;;;;;;;23.60;17.00;;;18.10;1.00;;;;;;4942315;28;20205;-76
2021/09/06 08:13:29;;;;;;;23.80;16.40;;;18.10;1.00;;;;;;4940181;28;20813;-76
2021/09/06 08:15:55;;;;;;;21.47;16.60;;;18.20;1.00;;;;;;4949366;28;20469;-76
2021/09/06 08:18:21;;;;;;;27.20;16.77;;;18.30;1.00;;;;;;4939497;28;20218;-76
2021/09/06 08:20:49;;;;;;;26.87;16.70;;;18.30;1.00;;;;;;4938644;28;20460;-76
2021/09/06 08:23:16;;;;;;;22.17;16.67;;;18.40;1.00;;;;;;4952296;28;20463;-76
2021/09/06 08:25:45;;;;;;;22.40;16.87;;;18.50;1.00;;;;;;4940908;28;20599;-76
2021/09/06 08:28:11;;;;;;;23.67;16.93;;;18.70;1.00;;;;;;4937117;28;20856;-76
2021/09/06 08:30:38;;;;;;;25.23;16.67;;;18.80;1.00;;;;;;4952308;28;20185;-76
2021/09/06 08:33:04;;;;;;;22.87;15.93;;;18.90;1.00;;;;;;4944994;28;20885;-76
2021/09/06 08:35:31;;;;;;;22.50;16.67;;;18.90;1.00;;;;;;4939210;28;20194;-76
2021/09/06 08:37:57;;;;;;;20.83;15.37;;;19.00;1.00;;;;;;4951101;28;20854;-76
2021/09/06 08:40:23;;;;;;;18.73;14.83;;;19.10;1.00;;;;;;4936672;28;20186;-76
2021/09/06 08:42:50;;;;;;;22.63;16.43;;;19.30;1.00;;;;;;4936533;28;20468;-76
2021/09/06 08:45:16;;;;;;;19.63;14.63;;;19.40;1.00;;;;;;4947092;28;21719;-76
2021/09/06 08:47:45;;;;;;;20.67;14.27;;;19.40;1.00;;;;;;4953645;28;20511;-76
2021/09/06 08:50:12;;;;;;;18.77;14.20;;;19.60;1.00;;;;;;4948498;28;20516;-76
2021/09/06 08:52:40;;;;;;;20.67;14.93;;;19.70;1.00;;;;;;4942214;28;20495;-76
2021/09/06 08:55:07;;;;;;;17.83;13.63;;;19.80;1.00;;;;;;4947520;28;20449;-77
2021/09/06 08:57:33;;;;;;;19.60;15.00;;;19.80;1.00;;;;;;4937552;28;20441;-76
2021/09/06 09:00:03;;;;;;;17.33;12.73;;;19.90;1.00;;;;;;4939206;28;20815;-76
2021/09/06 09:02:52;;;;;;;20.93;13.63;;;20.00;1.00;;;;;;4941523;28;20194;-76
2021/09/06 09:05:35;;;;;;;18.00;13.33;;;20.00;1.00;;;;;;4943654;28;20465;-76
2021/09/06 09:08:32;;;;;;;16.23;13.23;;;20.20;1.00;;;;;;4931485;28;20891;-76
2021/09/06 09:11:07;;;;;;;23.00;13.73;;;20.30;1.00;;;;;;4947105;28;20454;-76
2021/09/06 09:13:51;;;;;;;20.80;13.70;;;20.30;1.00;;;;;;4947889;28;20436;-76
2021/09/06 09:16:55;;;;;;;18.80;13.30;;;20.40;1.00;;;;;;4939957;28;20453;-76
2021/09/06 09:19:40;;;;;;;20.43;13.43;;;20.50;1.00;;;;;;4950189;28;20486;-76
2021/09/06 09:22:44;;;;;;;17.73;15.37;;;20.50;1.00;;;;;;4946527;28;20571;-76
2021/09/06 09:25:26;;;;;;;21.40;15.30;;;20.60;1.00;;;;;;4948061;28;20833;-76
2021/09/06 09:28:29;;;;;;;20.70;15.37;;;20.50;1.00;;;;;;4929217;28;20478;-76
2021/09/06 09:31:19;;;;;;;20.40;15.00;;;20.60;1.00;;;;;;4949468;28;20523;-76
2021/09/06 09:33:51;;;;;;;17.60;13.47;;;20.70;1.00;;;;;;4947565;28;20523;-76
2021/09/06 09:36:34;;;;;;;18.17;12.90;;;20.80;1.00;;;;;;4931914;28;20456;-76
2021/09/06 09:39:12;;;;;;;21.70;14.57;;;20.80;1.00;;;;;;4956034;28;20520;-76
2021/09/06 09:41:45;;;;;;;31.00;14.70;;;20.90;1.00;;;;;;4951348;28;20444;-76
2021/09/06 09:44:21;;;;;;;16.60;12.80;;;20.90;1.00;;;;;;4946177;28;20472;-76
2021/09/06 09:47:05;;;;;;;21.70;14.30;;;21.00;1.00;;;;;;4944794;28;20441;-76
2021/09/06 09:49:34;;;;;;;21.13;14.50;;;21.20;1.00;;;;;;4953183;28;20866;-77
2021/09/06 09:52:01;;;;;;;18.20;14.23;;;21.20;1.00;;;;;;4945610;28;20198;-76
2021/09/06 09:54:27;;;;;;;18.50;13.80;;;21.00;1.00;;;;;;4952940;28;20496;-76
2021/09/06 09:56:53;;;;;;;18.20;13.43;;;21.20;1.00;;;;;;4951945;28;20452;-76
2021/09/06 09:59:20;;;;;;;18.47;14.00;;;21.30;1.00;;;;;;4950694;28;20863;-76
2021/09/06 10:01:55;;;;;;;18.40;14.50;;;21.40;1.00;;;;;;4946450;28;20479;-77
2021/09/06 10:04:24;;;;;;;18.93;13.40;;;21.50;1.00;;;;;;4948579;28;21205;-77
2021/09/06 10:06:52;;;;;;;19.17;12.53;;;21.60;1.00;;;;;;4945797;28;20453;-77
2021/09/06 10:09:19;;;;;;;20.20;15.40;;;21.70;1.00;;;;;;4950510;28;21088;-76
2021/09/06 10:11:44;;;;;;;16.57;12.93;;;21.60;1.00;;;;;;4943774;28;20446;-77
2021/09/06 10:14:11;;;;;;;16.83;12.63;;;21.80;1.00;;;;;;4935983;28;20236;-77
2021/09/06 10:16:39;;;;;;;18.10;12.60;;;21.90;1.00;;;;;;4944735;28;20861;-76
2021/09/06 10:19:11;;;;;;;19.60;14.03;;;22.00;1.00;;;;;;4935391;28;20456;-77
2021/09/06 10:21:48;;;;;;;19.13;14.50;;;22.00;1.00;;;;;;4950652;28;20496;-76
2021/09/06 10:24:19;;;;;;;16.43;12.97;;;22.10;1.00;;;;;;4947231;28;20448;-76
2021/09/06 10:26:47;;;;;;;16.97;12.10;;;22.20;1.00;;;;;;4950314;28;20500;-77
2021/09/06 10:29:16;;;;;;;15.87;12.80;;;22.30;1.00;;;;;;4947299;28;20465;-77
2021/09/06 10:31:44;;;;;;;16.13;12.00;;;22.30;1.00;;;;;;4946890;28;20461;-77
2021/09/06 10:34:21;;;;;;;18.73;14.13;;;22.20;1.00;;;;;;4947778;28;20441;-77
2021/09/06 10:37:02;;;;;;;16.00;13.13;;;22.20;1.00;;;;;;4950618;28;20520;-77
2021/09/06 10:39:28;;;;;;;16.27;12.47;;;22.30;1.00;;;;;;4951101;28;20806;-76
2021/09/06 10:42:06;;;;;;;18.90;12.80;;;22.40;1.00;;;;;;4950614;28;20455;-77
2021/09/06 10:44:38;;;;;;;20.77;14.67;;;22.60;1.00;;;;;;4951180;28;20441;-76
2021/09/06 10:47:11;;;;;;;19.47;13.97;;;22.50;1.00;;;;;;4952873;28;20508;-77
2021/09/06 10:49:40;;;;;;;18.70;14.77;;;22.40;1.00;;;;;;4950119;28;20543;-77
2021/09/06 10:52:06;;;;;;;19.47;13.63;;;22.40;1.00;;;;;;4948863;28;20535;-77
2021/09/06 10:54:33;;;;;;;18.10;13.50;;;22.50;1.00;;;;;;4951963;28;20535;-77
2021/09/06 10:57:00;;;;;;;16.30;13.60;;;22.50;1.00;;;;;;4950781;28;20524;-77
2021/09/06 10:59:26;;;;;;;19.10;13.27;;;22.60;1.00;;;;;;4951113;28;20496;-76
2021/09/06 11:01:56;;;;;;;15.90;13.20;;;22.60;1.00;;;;;;4952480;28;20185;-77
2021/09/06 11:04:24;;;;;;;16.50;13.10;;;22.70;1.00;;;;;;4949582;28;20448;-77
2021/09/06 11:07:06;;;;;;;18.80;14.07;;;22.60;1.00;;;;;;4955770;28;20464;-77
2021/09/06 11:09:34;;;;;;;18.53;13.63;;;22.70;1.00;;;;;;4949324;28;21500;-77
2021/09/06 11:12:06;;;;;;;16.40;13.77;;;22.90;1.00;;;;;;4951378;28;20496;-77
2021/09/06 11:14:34;;;;;;;17.67;13.27;;;23.10;1.00;;;;;;4947037;28;20533;-77
2021/09/06 11:17:01;;;;;;;17.87;12.20;;;23.10;1.00;;;;;;4949856;28;20818;-77
2021/09/06 11:19:29;;;;;;;14.97;11.97;;;23.00;1.00;;;;;;4946839;28;20504;-77
2021/09/06 11:21:58;;;;;;;17.00;13.10;;;22.80;1.00;;;;;;4950726;28;20296;-77
2021/09/06 11:24:26;;;;;;;16.57;12.47;;;22.80;1.00;;;;;;4954441;28;20456;-77
2021/09/06 11:26:53;;;;;;;17.73;13.50;;;22.90;1.00;;;;;;4952671;28;20441;-76
2021/09/06 11:29:20;;;;;;;17.10;12.80;;;22.90;1.00;;;;;;4951262;28;20476;-76
2021/09/06 11:31:50;;;;;;;15.17;11.83;;;23.00;1.00;;;;;;4948151;28;20433;-76
2021/09/06 11:34:21;;;;;;;14.30;11.40;;;23.00;1.00;;;;;;4953233;28;20590;-76
2021/09/06 11:36:47;;;;;;;18.20;12.37;;;23.00;1.00;;;;;;4950474;28;20478;-76
2021/09/06 11:39:12;;;;;;;19.60;13.27;;;22.90;1.00;;;;;;4952128;28;20460;-76
2021/09/06 11:41:39;;;;;;;17.10;12.67;;;23.00;1.00;;;;;;4953272;28;20276;-76
2021/09/06 11:44:10;;;;;;;15.00;11.73;;;22.90;1.00;;;;;;4951764;28;20197;-76
2021/09/06 11:46:41;;;;;;;15.20;11.47;;;23.00;1.00;;;;;;4952047;28;20460;-76
2021/09/06 11:49:07;;;;;;;17.20;12.87;;;23.00;1.00;;;;;;4949401;28;20470;-76
2021/09/06 11:51:32;;;;;;;16.97;13.27;;;23.10;1.00;;;;;;4946810;28;20466;-76
2021/09/06 11:54:00;;;;;;;16.87;12.80;;;23.00;1.00;;;;;;4948628;28;21649;-76
2021/09/06 11:56:27;;;;;;;17.00;13.23;;;23.10;1.00;;;;;;4947538;28;20753;-76
2021/09/06 11:58:57;;;;;;;18.50;12.60;;;23.10;1.00;;;;;;4950908;28;20437;-76
2021/09/06 12:01:23;;;;;;;14.63;12.60;;;23.20;1.00;;;;;;4947472;28;20460;-76
2021/09/06 12:03:49;;;;;;;17.60;12.93;;;23.20;1.00;;;;;;4950552;28;20533;-76
2021/09/06 12:06:17;;;;;;;15.80;12.83;;;23.20;1.00;;;;;;4952495;28;20902;-76
2021/09/06 12:08:59;;;;;;;18.17;12.80;;;23.00;1.00;;;;;;4938580;28;20202;-76
2021/09/06 12:11:35;;;;;;;17.30;11.70;;;22.90;1.00;;;;;;4951276;28;20474;-78
2021/09/06 12:14:01;;;;;;;14.17;11.90;;;22.80;1.00;;;;;;4954871;28;20583;-75
2021/09/06 12:16:30;;;;;;;15.63;11.97;;;22.80;1.00;;;;;;4954423;28;20995;-78
2021/09/06 12:18:57;;;;;;;16.17;10.57;;;22.70;1.00;;;;;;4954709;28;20190;-78
2021/09/06 12:21:25;;;;;;;14.90;11.93;;;22.80;1.00;;;;;;4952676;28;20472;-78
2021/09/06 12:23:58;;;;;;;15.27;11.50;;;22.90;1.00;;;;;;4951042;28;22218;-75
2021/09/06 12:26:24;;;;;;;15.33;11.10;;;23.00;1.00;;;;;;4947854;28;20511;-78
2021/09/06 12:28:56;;;;;;;13.47;10.20;;;23.10;1.00;;;;;;4948524;28;21422;-75
2021/09/06 12:31:22;;;;;;;12.53;10.23;;;23.20;1.00;;;;;;4943805;28;20205;-75
2021/09/06 12:33:48;;;;;;;14.50;11.33;;;23.30;1.00;;;;;;4954821;28;20449;-76
2021/09/06 12:36:15;;;;;;;14.60;11.07;;;23.40;1.00;;;;;;4953665;28;20452;-75
2021/09/06 12:38:41;;;;;;;13.07;11.03;;;23.50;1.00;;;;;;4954778;28;20981;-76
2021/09/06 12:41:07;;;;;;;13.80;10.97;;;23.40;1.00;;;;;;4944745;28;20448;-76
2021/09/06 12:43:33;;;;;;;15.20;11.80;;;23.40;1.00;;;;;;4948597;28;20833;-75